createdAt,value
2023-05-05T00:01:02.377Z,14.53
2023-05-05T00:03:30.950Z,14.29
2023-05-05T00:05:59.117Z,14.27
2023-05-05T00:08:29.688Z,14.28
2023-05-05T00:10:58.282Z,14.26
2023-05-05T00:13:26.720Z,14.36
2023-05-05T00:15:56.362Z,14.18
2023-05-05T00:18:25.024Z,14.15
2023-05-05T00:20:53.634Z,14.20
2023-05-05T00:23:22.161Z,14.25
2023-05-05T00:25:52.176Z,14.24
2023-05-05T00:28:20.972Z,14.09
2023-05-05T00:30:49.395Z,14.10
2023-05-05T00:33:17.762Z,14.21
2023-05-05T00:35:46.358Z,14.20
2023-05-05T00:38:14.548Z,14.18
2023-05-05T00:40:43.000Z,13.88
2023-05-05T00:43:13.507Z,13.94
2023-05-05T00:45:47.819Z,14.12
2023-05-05T00:48:17.157Z,14.15
2023-05-05T00:50:46.407Z,14.18
2023-05-05T00:53:15.959Z,14.29
2023-05-05T00:55:44.210Z,14.20
2023-05-05T00:58:14.277Z,14.16
2023-05-05T01:00:43.056Z,14.25
2023-05-05T01:03:13.159Z,14.36
2023-05-05T01:05:57.329Z,14.17
2023-05-05T01:08:38.711Z,14.13
2023-05-05T01:11:16.158Z,14.27
2023-05-05T01:13:51.905Z,14.17
2023-05-05T01:16:24.045Z,13.99
2023-05-05T01:18:58.230Z,14.02
2023-05-05T01:21:31.467Z,14.10
2023-05-05T01:24:24.937Z,14.09
2023-05-05T01:27:05.832Z,14.06
2023-05-05T01:29:51.775Z,13.98
2023-05-05T01:32:26.988Z,13.98
2023-05-05T01:35:00.729Z,14.05
2023-05-05T01:37:33.939Z,14.10
2023-05-05T01:40:08.465Z,14.25
2023-05-05T01:42:39.474Z,14.18
2023-05-05T01:45:10.658Z,14.10
2023-05-05T01:47:46.362Z,14.21
2023-05-05T01:50:17.578Z,14.16
2023-05-05T01:52:47.900Z,14.16
2023-05-05T01:55:18.981Z,14.02
2023-05-05T01:57:50.820Z,14.07
2023-05-05T02:00:20.649Z,14.12
2023-05-05T02:02:51.540Z,14.02
2023-05-05T02:05:22.976Z,13.85
2023-05-05T02:07:52.272Z,13.87
2023-05-05T02:10:20.597Z,13.82
2023-05-05T02:12:50.198Z,13.84
2023-05-05T02:15:19.197Z,13.92
2023-05-05T02:17:49.870Z,13.94
2023-05-05T02:20:20.099Z,13.87
2023-05-05T02:22:48.536Z,13.68
2023-05-05T02:25:18.148Z,13.68
2023-05-05T02:27:49.700Z,13.45
2023-05-05T02:30:21.093Z,13.60
2023-05-05T02:32:57.535Z,13.46
2023-05-05T02:35:30.223Z,13.37
2023-05-05T02:38:02.910Z,13.17
2023-05-05T02:40:34.606Z,13.25
2023-05-05T02:43:07.914Z,13.31
2023-05-05T02:45:36.269Z,13.15
2023-05-05T02:48:06.855Z,13.08
2023-05-05T02:50:35.599Z,12.92
2023-05-05T02:53:04.098Z,12.81
2023-05-05T02:55:38.604Z,12.82
2023-05-05T02:58:09.284Z,12.91
2023-05-05T03:00:45.065Z,12.94
2023-05-05T03:03:20.435Z,13.07
2023-05-05T03:05:54.273Z,12.89
2023-05-05T03:08:29.913Z,12.79
2023-05-05T03:11:02.108Z,12.84
2023-05-05T03:13:31.400Z,12.94
2023-05-05T03:16:04.832Z,12.89
2023-05-05T03:18:37.842Z,12.98
2023-05-05T03:21:09.524Z,12.96
2023-05-05T03:23:38.194Z,12.95
2023-05-05T03:26:06.438Z,13.06
2023-05-05T03:28:34.798Z,12.96
2023-05-05T03:31:04.060Z,13.04
2023-05-05T03:33:33.723Z,12.99
2023-05-05T03:36:03.294Z,12.90
2023-05-05T03:38:32.226Z,12.78
2023-05-05T03:41:03.171Z,12.87
2023-05-05T03:43:31.834Z,12.97
2023-05-05T03:46:00.428Z,12.95
2023-05-05T03:48:28.788Z,13.02
2023-05-05T03:50:58.488Z,12.95
2023-05-05T03:53:27.187Z,13.03
2023-05-05T03:55:56.349Z,12.91
2023-05-05T03:58:24.626Z,12.89
2023-05-05T04:00:52.989Z,12.71
2023-05-05T04:03:21.568Z,12.53
2023-05-05T04:05:50.260Z,12.43
2023-05-05T04:08:19.933Z,12.53
2023-05-05T04:10:48.376Z,12.45
2023-05-05T04:13:16.804Z,12.62
2023-05-05T04:15:48.413Z,12.56
2023-05-05T04:18:16.620Z,12.68
2023-05-05T04:20:44.685Z,12.53
2023-05-05T04:23:12.889Z,12.43
2023-05-05T04:25:42.451Z,12.41
2023-05-05T04:28:10.885Z,12.46
2023-05-05T04:30:39.570Z,12.59
2023-05-05T04:33:07.769Z,12.54
2023-05-05T04:35:35.932Z,12.63
2023-05-05T04:38:04.193Z,12.65
2023-05-05T04:40:32.521Z,12.63
2023-05-05T04:43:02.171Z,12.56
2023-05-05T04:45:30.863Z,12.78
2023-05-05T04:47:58.893Z,12.85
2023-05-05T04:50:27.451Z,13.00
2023-05-05T04:52:56.577Z,13.07
2023-05-05T04:55:24.966Z,13.07
2023-05-05T04:57:53.346Z,13.04
2023-05-05T05:00:23.591Z,12.95
2023-05-05T05:02:52.695Z,12.71
2023-05-05T05:05:21.833Z,12.85
2023-05-05T05:07:50.382Z,12.89
2023-05-05T05:10:18.608Z,13.05
2023-05-05T05:12:49.206Z,13.13
2023-05-05T05:15:17.635Z,13.09
2023-05-05T05:17:47.624Z,13.39
2023-05-05T05:20:15.895Z,13.41
2023-05-05T05:22:43.990Z,13.41
2023-05-05T05:25:12.330Z,13.55
2023-05-05T05:27:43.647Z,13.21
2023-05-05T05:30:12.563Z,13.42
2023-05-05T05:32:40.959Z,13.49
2023-05-05T05:35:14.038Z,13.81
2023-05-05T05:37:42.494Z,13.91
2023-05-05T05:40:11.812Z,13.95
2023-05-05T05:42:40.195Z,13.93
2023-05-05T05:45:10.197Z,13.98
2023-05-05T05:47:38.543Z,14.09
2023-05-05T05:50:08.702Z,14.11
2023-05-05T05:52:39.118Z,14.29
2023-05-05T05:55:08.713Z,14.55
2023-05-05T05:57:37.999Z,14.41
2023-05-05T06:00:07.667Z,14.53
2023-05-05T06:02:36.407Z,14.62
2023-05-05T06:05:05.060Z,14.78
2023-05-05T06:07:33.390Z,15.15
2023-05-05T06:10:18.611Z,14.91
2023-05-05T06:12:51.609Z,14.65
2023-05-05T06:15:19.697Z,14.65
2023-05-05T06:17:47.969Z,14.88
2023-05-05T06:20:16.356Z,15.04
2023-05-05T06:22:44.673Z,15.23
2023-05-05T06:25:14.296Z,15.31
2023-05-05T06:27:42.386Z,15.38
2023-05-05T06:30:11.707Z,15.50
2023-05-05T06:32:39.914Z,15.55
2023-05-05T06:35:09.463Z,15.62
2023-05-05T06:37:37.808Z,15.53
2023-05-05T06:40:08.017Z,15.47
2023-05-05T06:42:38.151Z,15.67
2023-05-05T06:45:06.941Z,15.82
2023-05-05T06:47:35.490Z,15.76
2023-05-05T06:50:03.919Z,16.06
2023-05-05T06:52:32.020Z,16.06
2023-05-05T06:55:00.276Z,16.27
2023-05-05T06:57:28.506Z,16.33
2023-05-05T06:59:58.182Z,16.56
2023-05-05T07:02:26.966Z,16.58
2023-05-05T07:04:55.778Z,16.57
2023-05-05T07:07:24.537Z,16.54
2023-05-05T07:09:52.700Z,16.74
2023-05-05T07:12:22.133Z,16.65
2023-05-05T07:14:50.463Z,16.83
2023-05-05T07:17:20.208Z,16.86
2023-05-05T07:19:48.703Z,17.06
2023-05-05T07:22:16.811Z,17.15
2023-05-05T07:24:46.053Z,16.94
2023-05-05T07:27:14.424Z,17.13
2023-05-05T07:29:42.734Z,17.25
2023-05-05T07:32:11.120Z,17.40
2023-05-05T07:34:41.656Z,17.59
2023-05-05T07:37:09.955Z,17.68
2023-05-05T07:39:38.160Z,17.82
2023-05-05T07:42:06.904Z,17.88
2023-05-05T07:44:35.244Z,17.96
2023-05-05T07:47:03.423Z,17.76
2023-05-05T07:49:31.811Z,17.48
2023-05-05T07:52:01.869Z,17.15
2023-05-05T07:54:30.308Z,17.37
2023-05-05T07:56:58.597Z,17.53
2023-05-05T07:59:26.703Z,17.80
2023-05-05T08:01:55.103Z,17.60
2023-05-05T08:04:23.196Z,17.96
2023-05-05T08:06:51.364Z,18.26
2023-05-05T08:09:21.112Z,18.16
2023-05-05T08:11:50.687Z,18.32
2023-05-05T08:14:19.691Z,18.30
2023-05-05T08:16:48.578Z,18.08
2023-05-05T08:19:28.966Z,18.38
2023-05-05T08:22:00.035Z,18.51
2023-05-05T08:24:31.099Z,18.48
2023-05-05T08:26:59.501Z,18.70
2023-05-05T08:29:27.923Z,18.92
2023-05-05T08:31:56.421Z,19.17
2023-05-05T08:34:26.667Z,19.07
2023-05-05T08:36:55.785Z,19.21
2023-05-05T08:39:24.224Z,19.29
2023-05-05T08:41:54.154Z,19.33
2023-05-05T08:44:23.299Z,19.52
2023-05-05T08:46:52.025Z,19.65
2023-05-05T08:49:21.230Z,19.89
2023-05-05T08:51:53.518Z,20.00
2023-05-05T08:54:24.550Z,20.03
2023-05-05T08:56:55.030Z,20.21
2023-05-05T08:59:25.478Z,20.24
2023-05-05T09:01:55.529Z,20.65
2023-05-05T09:04:24.272Z,20.80
2023-05-05T09:06:52.495Z,21.00
2023-05-05T09:09:21.454Z,20.99
2023-05-05T09:11:49.861Z,21.38
2023-05-05T09:14:21.091Z,21.37
2023-05-05T09:16:49.376Z,21.23
2023-05-05T09:19:17.685Z,21.52
2023-05-05T09:21:49.967Z,21.27
2023-05-05T09:24:18.945Z,21.52
2023-05-05T09:26:49.916Z,21.30
2023-05-05T09:29:23.950Z,21.71
2023-05-05T09:32:09.921Z,22.27
2023-05-05T09:34:39.589Z,22.07
2023-05-05T09:37:07.917Z,21.52
2023-05-05T09:39:36.218Z,21.94
2023-05-05T09:42:04.381Z,21.97
2023-05-05T09:44:38.139Z,22.34
2023-05-05T09:47:18.069Z,22.43
2023-05-05T09:49:59.364Z,22.64
2023-05-05T09:52:27.766Z,22.70
2023-05-05T09:54:57.328Z,22.51
2023-05-05T09:57:30.377Z,22.40
2023-05-05T10:00:02.245Z,22.23
2023-05-05T10:02:34.965Z,22.66
2023-05-05T10:05:08.143Z,22.95
2023-05-05T10:07:37.730Z,22.37
2023-05-05T10:10:07.920Z,22.80
2023-05-05T10:12:38.072Z,22.59
2023-05-05T10:15:10.518Z,22.49
2023-05-05T10:18:02.372Z,22.59
2023-05-05T10:20:34.605Z,22.04
2023-05-05T10:23:06.975Z,22.89
2023-05-05T10:25:40.926Z,22.47
2023-05-05T10:28:15.825Z,22.90
2023-05-05T10:30:50.664Z,23.42
2023-05-05T10:33:31.177Z,23.75
2023-05-05T10:36:03.439Z,23.85
2023-05-05T10:38:31.990Z,23.77
2023-05-05T10:41:02.001Z,23.66
2023-05-05T10:43:32.192Z,23.83
2023-05-05T10:46:02.893Z,23.69
2023-05-05T10:48:40.091Z,23.75
2023-05-05T10:51:35.251Z,22.50
2023-05-05T10:54:12.601Z,22.43
2023-05-05T10:56:42.471Z,22.69
2023-05-05T10:59:40.922Z,23.21
2023-05-05T11:02:32.697Z,23.30
2023-05-05T11:05:22.865Z,22.94
2023-05-05T11:07:52.706Z,23.72
2023-05-05T11:10:23.423Z,24.15
2023-05-05T11:13:21.142Z,24.60
2023-05-05T11:15:50.873Z,24.19
2023-05-05T11:18:37.146Z,24.12
2023-05-05T11:21:18.845Z,24.22
2023-05-05T11:23:49.178Z,23.73
2023-05-05T11:26:19.042Z,23.69
2023-05-05T11:29:02.378Z,24.14
2023-05-05T11:31:32.120Z,24.39
2023-05-05T11:34:28.136Z,24.33
2023-05-05T11:37:02.941Z,24.35
2023-05-05T11:39:52.413Z,24.41
2023-05-05T11:42:27.795Z,24.17
2023-05-05T11:44:56.321Z,23.29
2023-05-05T11:47:33.873Z,23.02
2023-05-05T11:50:23.510Z,22.70
2023-05-05T11:52:52.091Z,22.44
2023-05-05T11:55:23.805Z,22.08
2023-05-05T11:57:52.585Z,21.81
2023-05-05T12:00:21.666Z,21.21
2023-05-05T12:02:58.929Z,20.83
2023-05-05T12:05:28.938Z,20.50
2023-05-05T12:08:00.290Z,20.09
2023-05-05T12:10:29.293Z,19.97
2023-05-05T12:12:58.275Z,19.95
2023-05-05T12:15:34.022Z,20.13
2023-05-05T12:18:03.221Z,20.08
2023-05-05T12:20:34.614Z,19.99
2023-05-05T12:23:04.534Z,20.07
2023-05-05T12:25:40.511Z,19.99
2023-05-05T12:28:09.948Z,19.61
2023-05-05T12:30:40.072Z,20.08
2023-05-05T12:33:09.591Z,20.10
2023-05-05T12:35:39.635Z,20.16
2023-05-05T12:38:07.765Z,20.17
2023-05-05T12:40:50.414Z,20.34
2023-05-05T12:43:30.648Z,20.46
2023-05-05T12:46:03.803Z,20.61
2023-05-05T12:48:32.094Z,20.73
2023-05-05T12:51:20.051Z,20.95
2023-05-05T12:53:49.980Z,21.22
2023-05-05T12:56:34.960Z,21.52
2023-05-05T12:59:04.449Z,21.37
2023-05-05T13:01:33.359Z,21.48
2023-05-05T13:04:09.785Z,21.62
2023-05-05T13:06:40.410Z,21.52
2023-05-05T13:09:10.002Z,21.63
2023-05-05T13:11:38.884Z,21.47
2023-05-05T13:14:08.335Z,21.40
2023-05-05T13:16:36.618Z,21.36
2023-05-05T13:19:04.844Z,21.23
2023-05-05T13:21:33.286Z,21.13
2023-05-05T13:24:19.122Z,21.19
2023-05-05T13:26:51.526Z,21.10
2023-05-05T13:29:20.191Z,20.54
2023-05-05T13:31:48.361Z,20.47
2023-05-05T13:34:16.566Z,20.36
2023-05-05T13:36:44.796Z,20.39
2023-05-05T13:39:14.662Z,20.66
2023-05-05T13:41:44.905Z,20.78
2023-05-05T13:44:13.876Z,20.89
2023-05-05T13:46:42.681Z,21.23
2023-05-05T13:49:11.502Z,21.55
2023-05-05T13:51:39.989Z,22.38
2023-05-05T13:54:08.373Z,22.97
2023-05-05T13:56:38.262Z,23.11
2023-05-05T13:59:06.651Z,23.25
2023-05-05T14:01:35.003Z,22.89
2023-05-05T14:04:05.388Z,23.27
2023-05-05T14:06:34.099Z,23.46
2023-05-05T14:09:05.970Z,23.61
2023-05-05T14:11:35.058Z,23.72
2023-05-05T14:14:07.172Z,23.89
2023-05-05T14:16:35.260Z,23.48
2023-05-05T14:19:03.387Z,23.52
2023-05-05T14:21:31.901Z,23.51
2023-05-05T14:24:00.064Z,23.57
2023-05-05T14:26:28.558Z,23.65
2023-05-05T14:28:56.682Z,23.52
2023-05-05T14:31:26.403Z,23.80
2023-05-05T14:33:54.952Z,23.51
2023-05-05T14:36:23.829Z,23.45
2023-05-05T14:38:52.075Z,23.47
2023-05-05T14:41:20.745Z,23.47
2023-05-05T14:43:48.836Z,23.56
2023-05-05T14:46:17.272Z,23.66
2023-05-05T14:48:48.874Z,23.86
2023-05-05T14:51:17.383Z,23.96
2023-05-05T14:53:46.741Z,23.58
2023-05-05T14:56:16.385Z,23.49
2023-05-05T14:58:46.170Z,23.52
2023-05-05T15:01:15.551Z,23.28
2023-05-05T15:03:44.083Z,23.03
2023-05-05T15:06:16.675Z,23.05
2023-05-05T15:08:45.014Z,22.98
2023-05-05T15:11:13.968Z,23.02
2023-05-05T15:13:42.814Z,23.00
2023-05-05T15:16:11.298Z,22.62
2023-05-05T15:18:39.543Z,22.21
2023-05-05T15:21:07.768Z,21.54
2023-05-05T15:23:37.766Z,21.75
2023-05-05T15:26:05.910Z,21.45
2023-05-05T15:28:35.228Z,21.17
2023-05-05T15:31:03.726Z,20.91
2023-05-05T15:33:32.496Z,20.90
2023-05-05T15:36:01.267Z,20.93
2023-05-05T15:38:30.914Z,20.90
2023-05-05T15:41:01.298Z,20.90
2023-05-05T15:43:30.815Z,20.87
2023-05-05T15:45:58.926Z,20.79
2023-05-05T15:48:28.149Z,20.85
2023-05-05T15:50:57.095Z,20.69
2023-05-05T15:53:27.240Z,20.63
2023-05-05T15:55:57.085Z,20.62
2023-05-05T15:58:29.284Z,20.66
2023-05-05T16:00:58.511Z,20.61
2023-05-05T16:03:26.865Z,20.70
2023-05-05T16:05:55.360Z,20.56
2023-05-05T16:08:23.540Z,20.60
2023-05-05T16:10:51.882Z,20.55
2023-05-05T16:13:20.198Z,20.51
2023-05-05T16:15:50.033Z,20.59
2023-05-05T16:18:18.994Z,20.53
2023-05-05T16:20:48.680Z,20.48
2023-05-05T16:23:18.792Z,20.31
2023-05-05T16:25:47.313Z,20.34
2023-05-05T16:28:15.864Z,20.29
2023-05-05T16:30:44.255Z,20.23
2023-05-05T16:33:15.000Z,20.24
2023-05-05T16:35:46.430Z,20.21
2023-05-05T16:38:15.649Z,20.22
2023-05-05T16:40:44.443Z,20.29
2023-05-05T16:43:13.464Z,20.25
2023-05-05T16:45:42.599Z,20.26
2023-05-05T16:48:11.772Z,20.14
2023-05-05T16:50:41.761Z,20.09
2023-05-05T16:53:11.140Z,19.98
2023-05-05T16:55:39.361Z,19.92
2023-05-05T16:58:07.571Z,19.95
2023-05-05T17:00:35.816Z,19.96
2023-05-05T17:03:03.983Z,19.90
2023-05-05T17:05:32.170Z,19.92
2023-05-05T17:08:03.281Z,19.93
2023-05-05T17:10:31.696Z,19.92
2023-05-05T17:12:59.920Z,19.91
2023-05-05T17:15:28.059Z,19.88
2023-05-05T17:17:57.322Z,19.89
2023-05-05T17:20:25.705Z,19.52
2023-05-05T17:22:54.163Z,19.69
2023-05-05T17:25:25.881Z,19.64
2023-05-05T17:27:54.012Z,19.67
2023-05-05T17:30:22.355Z,19.55
2023-05-05T17:32:50.851Z,19.54
2023-05-05T17:35:19.512Z,19.55
2023-05-05T17:37:47.986Z,19.45
2023-05-05T17:40:16.429Z,19.53
2023-05-05T17:42:49.796Z,19.35
2023-05-05T17:45:18.229Z,19.39
2023-05-05T17:47:46.652Z,18.87
2023-05-05T17:50:15.139Z,18.70
2023-05-05T17:52:45.228Z,19.00
2023-05-05T17:55:13.539Z,18.84
2023-05-05T17:57:41.903Z,18.36
2023-05-05T18:00:13.934Z,17.81
2023-05-05T18:05:11.267Z,17.32
2023-05-05T18:07:39.898Z,17.09
2023-05-05T18:10:10.769Z,17.04
2023-05-05T18:12:38.939Z,17.15
2023-05-05T18:15:09.142Z,17.50
2023-05-05T18:17:39.180Z,17.66
2023-05-05T18:20:08.801Z,17.79
2023-05-05T18:22:37.397Z,17.73
2023-05-05T18:25:08.013Z,17.78
2023-05-05T18:27:37.698Z,17.95
2023-05-05T18:30:07.153Z,17.95
2023-05-05T18:32:37.678Z,17.94
2023-05-05T18:35:08.995Z,17.92
2023-05-05T18:37:37.191Z,17.86
2023-05-05T18:40:06.412Z,17.76
2023-05-05T18:42:34.858Z,17.78
2023-05-05T18:45:03.002Z,17.44
2023-05-05T18:47:31.647Z,17.44
2023-05-05T18:50:00.002Z,17.27
2023-05-05T18:52:29.547Z,17.19
2023-05-05T18:54:59.872Z,17.09
2023-05-05T18:57:28.324Z,17.10
2023-05-05T18:59:56.516Z,17.06
2023-05-05T19:02:25.037Z,17.04
2023-05-05T19:04:53.845Z,17.30
2023-05-05T19:07:34.328Z,17.19
2023-05-05T19:10:07.045Z,17.12
2023-05-05T19:12:35.368Z,17.10
2023-05-05T19:15:10.116Z,17.06
2023-05-05T19:17:38.669Z,17.08
2023-05-05T19:20:09.030Z,16.93
2023-05-05T19:22:37.467Z,16.65
2023-05-05T19:25:08.440Z,16.63
2023-05-05T19:27:37.125Z,16.34
2023-05-05T19:30:05.959Z,16.60
2023-05-05T19:32:34.560Z,16.82
2023-05-05T19:35:03.109Z,16.86
2023-05-05T19:37:31.502Z,16.87
2023-05-05T19:39:59.863Z,16.71
2023-05-05T19:42:30.154Z,16.58
2023-05-05T19:44:58.844Z,16.63
2023-05-05T19:47:28.294Z,16.70
2023-05-05T19:49:57.016Z,16.73
2023-05-05T19:52:25.471Z,16.85
2023-05-05T19:54:53.881Z,16.95
2023-05-05T19:57:22.335Z,16.93
2023-05-05T19:59:52.162Z,16.78
2023-05-05T20:02:22.225Z,16.64
2023-05-05T20:04:51.859Z,16.37
2023-05-05T20:07:20.947Z,16.27
2023-05-05T20:09:49.862Z,16.21
2023-05-05T20:12:20.077Z,16.25
2023-05-05T20:14:53.496Z,16.07
2023-05-05T20:17:24.257Z,16.08
2023-05-05T20:19:52.737Z,15.96
2023-05-05T20:22:21.297Z,16.00
2023-05-05T20:24:50.897Z,16.06
2023-05-05T20:27:19.444Z,16.05
2023-05-05T20:29:48.460Z,16.04
2023-05-05T20:32:17.564Z,16.07
2023-05-05T20:34:47.451Z,16.04
2023-05-05T20:37:15.919Z,15.88
2023-05-05T20:39:44.406Z,15.88
2023-05-05T20:42:12.718Z,15.95
2023-05-05T20:44:42.288Z,16.01
2023-05-05T20:47:12.363Z,16.03
2023-05-05T20:49:40.748Z,16.23
2023-05-05T20:52:10.963Z,16.27
2023-05-05T20:54:40.393Z,16.34
2023-05-05T20:57:09.286Z,16.37
2023-05-05T20:59:37.472Z,16.53
2023-05-05T21:02:05.954Z,16.58
2023-05-05T21:04:34.556Z,16.54
2023-05-05T21:07:03.059Z,16.45
2023-05-05T21:09:35.420Z,16.46
2023-05-05T21:12:03.561Z,16.47
2023-05-05T21:14:31.848Z,16.43
2023-05-05T21:17:00.476Z,16.35
2023-05-05T21:19:28.929Z,16.49
2023-05-05T21:21:59.459Z,16.56
2023-05-05T21:24:28.237Z,16.50
2023-05-05T21:26:57.681Z,16.50
2023-05-05T21:29:26.137Z,16.52
2023-05-05T21:31:54.811Z,16.50
2023-05-05T21:34:23.218Z,16.52
2023-05-05T21:36:51.621Z,16.47
2023-05-05T21:39:19.834Z,16.39
2023-05-05T21:41:48.250Z,16.33
2023-05-05T21:44:17.911Z,16.33
2023-05-05T21:46:46.336Z,16.37
2023-05-05T21:49:15.593Z,16.38
2023-05-05T21:51:44.526Z,16.20
2023-05-05T21:54:12.838Z,16.28
2023-05-05T21:56:42.748Z,16.29
2023-05-05T21:59:11.318Z,16.38
2023-05-05T22:01:43.578Z,16.38
2023-05-05T22:04:11.966Z,15.78
2023-05-05T22:06:40.436Z,15.74
2023-05-05T22:09:08.795Z,15.91
2023-05-05T22:11:37.234Z,15.65
2023-05-05T22:14:05.225Z,15.46
2023-05-05T22:16:33.530Z,15.69
2023-05-05T22:19:03.627Z,15.90
2023-05-05T22:21:32.013Z,16.02
2023-05-05T22:24:00.627Z,15.97
2023-05-05T22:26:28.762Z,15.85
2023-05-05T22:28:58.676Z,15.78
2023-05-05T22:31:27.093Z,15.86
2023-05-05T22:33:55.845Z,15.77
2023-05-05T22:36:26.924Z,15.95
2023-05-05T22:38:55.131Z,15.95
2023-05-05T22:41:23.508Z,15.87
2023-05-05T22:43:51.674Z,15.88
2023-05-05T22:46:20.341Z,15.68
2023-05-05T22:48:49.280Z,15.65
2023-05-05T22:51:18.260Z,15.60
2023-05-05T22:53:48.427Z,15.55
2023-05-05T22:56:16.934Z,15.41
2023-05-05T22:58:46.677Z,15.42
2023-05-05T23:01:14.867Z,15.30
2023-05-05T23:03:43.348Z,15.22
2023-05-05T23:06:11.725Z,15.27
2023-05-05T23:08:40.242Z,15.17
2023-05-05T23:11:10.371Z,15.19
2023-05-05T23:13:38.665Z,15.18
2023-05-05T23:16:09.899Z,15.20
2023-05-05T23:18:39.038Z,15.16
2023-05-05T23:21:07.789Z,15.03
2023-05-05T23:23:36.032Z,15.08
2023-05-05T23:26:04.565Z,14.99
2023-05-05T23:28:34.905Z,15.07
2023-05-05T23:31:03.256Z,14.94
2023-05-05T23:33:31.788Z,14.92
2023-05-05T23:36:00.104Z,14.75
2023-05-05T23:38:28.417Z,14.75
2023-05-05T23:40:56.851Z,14.75
2023-05-05T23:43:28.194Z,14.76
2023-05-05T23:45:59.385Z,14.71
2023-05-05T23:48:29.242Z,14.61
2023-05-05T23:50:57.554Z,14.65
2023-05-05T23:53:26.215Z,14.61
2023-05-05T23:55:55.139Z,14.58
2023-05-05T23:58:23.488Z,14.66
